sensor_id;sensor_type;location;lat;lon;timestamp;P1;durP1;ratioP1;P2;durP2;ratioP2
39882;SDS011;55824;52.220;21.040;2023-03-13T00:02:02;6.70;;;4.72;;
39882;SDS011;55824;52.220;21.040;2023-03-13T00:04:28;7.78;;;4.93;;
39882;SDS011;55824;52.220;21.040;2023-03-13T00:06:54;7.30;;;5.22;;
39882;SDS011;55824;52.220;21.040;2023-03-13T00:09:20;8.07;;;5.60;;
39882;SDS011;55824;52.220;21.040;2023-03-13T00:11:47;8.13;;;5.70;;
39882;SDS011;55824;52.220;21.040;2023-03-13T00:14:13;7.35;;;5.25;;
39882;SDS011;55824;52.220;21.040;2023-03-13T00:16:39;7.18;;;4.90;;
39882;SDS011;55824;52.220;21.040;2023-03-13T00:19:05;8.00;;;5.03;;
39882;SDS011;55824;52.220;21.040;2023-03-13T00:21:32;9.95;;;5.55;;
39882;SDS011;55824;52.220;21.040;2023-03-13T00:23:58;7.68;;;5.15;;
39882;SDS011;55824;52.220;21.040;2023-03-13T00:26:25;8.88;;;5.28;;
39882;SDS011;55824;52.220;21.040;2023-03-13T00:28:52;7.78;;;4.95;;
39882;SDS011;55824;52.220;21.040;2023-03-13T00:31:22;7.95;;;5.30;;
39882;SDS011;55824;52.220;21.040;2023-03-13T00:33:49;8.13;;;5.65;;
39882;SDS011;55824;52.220;21.040;2023-03-13T00:36:17;7.53;;;5.20;;
39882;SDS011;55824;52.220;21.040;2023-03-13T00:38:43;7.78;;;5.53;;
39882;SDS011;55824;52.220;21.040;2023-03-13T00:41:10;7.55;;;5.15;;
39882;SDS011;55824;52.220;21.040;2023-03-13T00:43:37;6.78;;;4.55;;
39882;SDS011;55824;52.220;21.040;2023-03-13T00:46:03;8.50;;;5.20;;
39882;SDS011;55824;52.220;21.040;2023-03-13T00:48:29;7.15;;;5.03;;
39882;SDS011;55824;52.220;21.040;2023-03-13T00:50:57;9.30;;;5.22;;
39882;SDS011;55824;52.220;21.040;2023-03-13T00:53:23;7.45;;;5.20;;
39882;SDS011;55824;52.220;21.040;2023-03-13T00:58:21;7.03;;;4.90;;
39882;SDS011;55824;52.220;21.040;2023-03-13T01:00:47;8.80;;;5.15;;
39882;SDS011;55824;52.220;21.040;2023-03-13T01:03:13;6.95;;;4.63;;
39882;SDS011;55824;52.220;21.040;2023-03-13T01:05:40;8.00;;;5.00;;
39882;SDS011;55824;52.220;21.040;2023-03-13T01:08:06;7.25;;;4.97;;
39882;SDS011;55824;52.220;21.040;2023-03-13T01:10:32;7.30;;;4.75;;
39882;SDS011;55824;52.220;21.040;2023-03-13T01:12:58;7.20;;;4.63;;
39882;SDS011;55824;52.220;21.040;2023-03-13T01:15:24;6.35;;;4.50;;
39882;SDS011;55824;52.220;21.040;2023-03-13T01:17:50;6.55;;;4.40;;
39882;SDS011;55824;52.220;21.040;2023-03-13T01:20:16;6.80;;;4.70;;
39882;SDS011;55824;52.220;21.040;2023-03-13T01:22:42;6.63;;;4.00;;
39882;SDS011;55824;52.220;21.040;2023-03-13T01:25:08;7.03;;;4.97;;
39882;SDS011;55824;52.220;21.040;2023-03-13T01:27:34;6.68;;;4.05;;
39882;SDS011;55824;52.220;21.040;2023-03-13T01:29:59;5.38;;;3.70;;
39882;SDS011;55824;52.220;21.040;2023-03-13T01:32:25;7.35;;;4.43;;
39882;SDS011;55824;52.220;21.040;2023-03-13T01:34:51;6.95;;;4.75;;
39882;SDS011;55824;52.220;21.040;2023-03-13T01:37:17;7.40;;;3.78;;
39882;SDS011;55824;52.220;21.040;2023-03-13T01:39:43;6.60;;;4.22;;
39882;SDS011;55824;52.220;21.040;2023-03-13T01:42:09;8.25;;;4.28;;
39882;SDS011;55824;52.220;21.040;2023-03-13T01:44:52;6.78;;;4.47;;
39882;SDS011;55824;52.220;21.040;2023-03-13T01:47:18;6.28;;;4.53;;
39882;SDS011;55824;52.220;21.040;2023-03-13T01:49:44;6.85;;;4.13;;
39882;SDS011;55824;52.220;21.040;2023-03-13T01:52:29;6.47;;;4.22;;
39882;SDS011;55824;52.220;21.040;2023-03-13T01:54:58;5.57;;;3.80;;
39882;SDS011;55824;52.220;21.040;2023-03-13T01:57:26;5.85;;;4.00;;
39882;SDS011;55824;52.220;21.040;2023-03-13T01:59:56;6.50;;;3.70;;
39882;SDS011;55824;52.220;21.040;2023-03-13T02:02:24;6.18;;;3.70;;
39882;SDS011;55824;52.220;21.040;2023-03-13T02:04:51;6.45;;;3.88;;
39882;SDS011;55824;52.220;21.040;2023-03-13T02:07:21;6.05;;;4.18;;
39882;SDS011;55824;52.220;21.040;2023-03-13T02:09:49;6.40;;;4.27;;
39882;SDS011;55824;52.220;21.040;2023-03-13T02:12:17;6.00;;;3.83;;
39882;SDS011;55824;52.220;21.040;2023-03-13T02:14:44;7.65;;;4.47;;
39882;SDS011;55824;52.220;21.040;2023-03-13T02:17:12;5.63;;;3.95;;
39882;SDS011;55824;52.220;21.040;2023-03-13T02:19:45;5.85;;;3.60;;
39882;SDS011;55824;52.220;21.040;2023-03-13T02:27:34;5.85;;;3.97;;
39882;SDS011;55824;52.220;21.040;2023-03-13T02:30:00;6.10;;;3.78;;
39882;SDS011;55824;52.220;21.040;2023-03-13T02:32:28;5.97;;;3.85;;
39882;SDS011;55824;52.220;21.040;2023-03-13T02:34:59;6.63;;;3.80;;
39882;SDS011;55824;52.220;21.040;2023-03-13T02:37:27;6.47;;;3.97;;
39882;SDS011;55824;52.220;21.040;2023-03-13T02:39:54;6.38;;;4.25;;
39882;SDS011;55824;52.220;21.040;2023-03-13T02:42:21;5.97;;;3.60;;
39882;SDS011;55824;52.220;21.040;2023-03-13T02:44:47;6.45;;;3.88;;
39882;SDS011;55824;52.220;21.040;2023-03-13T02:47:22;6.10;;;3.85;;
39882;SDS011;55824;52.220;21.040;2023-03-13T02:49:48;6.45;;;4.10;;
39882;SDS011;55824;52.220;21.040;2023-03-13T02:52:18;5.57;;;3.80;;
39882;SDS011;55824;52.220;21.040;2023-03-13T02:54:46;6.95;;;4.07;;
39882;SDS011;55824;52.220;21.040;2023-03-13T02:57:14;5.65;;;3.70;;
39882;SDS011;55824;52.220;21.040;2023-03-13T02:59:40;7.80;;;4.20;;
39882;SDS011;55824;52.220;21.040;2023-03-13T03:02:06;7.88;;;4.20;;
39882;SDS011;55824;52.220;21.040;2023-03-13T03:04:32;5.72;;;4.03;;
39882;SDS011;55824;52.220;21.040;2023-03-13T03:06:58;6.72;;;3.58;;
39882;SDS011;55824;52.220;21.040;2023-03-13T03:09:24;6.90;;;3.97;;
39882;SDS011;55824;52.220;21.040;2023-03-13T03:11:50;6.15;;;3.80;;
39882;SDS011;55824;52.220;21.040;2023-03-13T03:14:16;7.10;;;3.60;;
39882;SDS011;55824;52.220;21.040;2023-03-13T03:16:42;6.00;;;3.70;;
39882;SDS011;55824;52.220;21.040;2023-03-13T03:19:08;6.13;;;3.50;;
39882;SDS011;55824;52.220;21.040;2023-03-13T03:21:35;6.32;;;4.00;;
39882;SDS011;55824;52.220;21.040;2023-03-13T03:24:01;5.88;;;3.78;;
39882;SDS011;55824;52.220;21.040;2023-03-13T03:26:28;6.25;;;4.05;;
39882;SDS011;55824;52.220;21.040;2023-03-13T03:28:54;6.90;;;4.00;;
39882;SDS011;55824;52.220;21.040;2023-03-13T03:31:20;6.72;;;4.10;;
39882;SDS011;55824;52.220;21.040;2023-03-13T03:33:46;6.43;;;4.00;;
39882;SDS011;55824;52.220;21.040;2023-03-13T03:36:16;6.40;;;4.10;;
39882;SDS011;55824;52.220;21.040;2023-03-13T03:38:43;6.35;;;3.92;;
39882;SDS011;55824;52.220;21.040;2023-03-13T03:41:09;6.38;;;3.45;;
39882;SDS011;55824;52.220;21.040;2023-03-13T03:43:35;6.38;;;3.78;;
39882;SDS011;55824;52.220;21.040;2023-03-13T03:46:01;5.35;;;3.42;;
39882;SDS011;55824;52.220;21.040;2023-03-13T03:48:28;5.70;;;3.85;;
39882;SDS011;55824;52.220;21.040;2023-03-13T03:50:54;6.30;;;3.90;;
39882;SDS011;55824;52.220;21.040;2023-03-13T03:53:20;5.88;;;4.15;;
39882;SDS011;55824;52.220;21.040;2023-03-13T03:55:46;5.93;;;3.95;;
39882;SDS011;55824;52.220;21.040;2023-03-13T03:58:12;5.47;;;3.35;;
39882;SDS011;55824;52.220;21.040;2023-03-13T04:00:38;6.47;;;4.05;;
39882;SDS011;55824;52.220;21.040;2023-03-13T04:03:04;6.13;;;4.10;;
39882;SDS011;55824;52.220;21.040;2023-03-13T04:05:30;5.45;;;3.85;;
39882;SDS011;55824;52.220;21.040;2023-03-13T04:07:56;6.88;;;3.90;;
39882;SDS011;55824;52.220;21.040;2023-03-13T04:10:22;6.18;;;4.07;;
39882;SDS011;55824;52.220;21.040;2023-03-13T04:12:48;6.10;;;4.13;;
39882;SDS011;55824;52.220;21.040;2023-03-13T04:15:13;5.70;;;3.65;;
39882;SDS011;55824;52.220;21.040;2023-03-13T04:17:39;6.85;;;4.18;;
39882;SDS011;55824;52.220;21.040;2023-03-13T04:20:05;7.03;;;4.25;;
39882;SDS011;55824;52.220;21.040;2023-03-13T04:22:32;6.05;;;4.28;;
39882;SDS011;55824;52.220;21.040;2023-03-13T04:24:58;6.28;;;4.10;;
39882;SDS011;55824;52.220;21.040;2023-03-13T04:27:24;6.28;;;3.88;;
39882;SDS011;55824;52.220;21.040;2023-03-13T04:29:50;6.30;;;4.43;;
39882;SDS011;55824;52.220;21.040;2023-03-13T04:32:16;6.57;;;3.97;;
39882;SDS011;55824;52.220;21.040;2023-03-13T04:34:42;7.10;;;4.43;;
39882;SDS011;55824;52.220;21.040;2023-03-13T04:37:08;7.07;;;4.00;;
39882;SDS011;55824;52.220;21.040;2023-03-13T04:39:34;6.18;;;4.13;;
39882;SDS011;55824;52.220;21.040;2023-03-13T04:42:00;7.43;;;4.57;;
39882;SDS011;55824;52.220;21.040;2023-03-13T04:44:26;6.30;;;4.15;;
39882;SDS011;55824;52.220;21.040;2023-03-13T04:46:52;6.35;;;4.10;;
39882;SDS011;55824;52.220;21.040;2023-03-13T04:49:18;6.95;;;4.45;;
39882;SDS011;55824;52.220;21.040;2023-03-13T04:51:45;7.20;;;4.40;;
39882;SDS011;55824;52.220;21.040;2023-03-13T04:54:11;6.53;;;3.83;;
39882;SDS011;55824;52.220;21.040;2023-03-13T04:56:37;7.03;;;4.35;;
39882;SDS011;55824;52.220;21.040;2023-03-13T04:59:03;6.38;;;3.90;;
39882;SDS011;55824;52.220;21.040;2023-03-13T05:01:29;6.18;;;3.80;;
39882;SDS011;55824;52.220;21.040;2023-03-13T05:03:55;7.60;;;4.68;;
39882;SDS011;55824;52.220;21.040;2023-03-13T05:06:21;5.38;;;3.53;;
39882;SDS011;55824;52.220;21.040;2023-03-13T05:08:47;5.97;;;3.75;;
39882;SDS011;55824;52.220;21.040;2023-03-13T05:11:13;6.30;;;4.20;;
39882;SDS011;55824;52.220;21.040;2023-03-13T05:13:39;5.40;;;3.70;;
39882;SDS011;55824;52.220;21.040;2023-03-13T05:16:05;5.28;;;3.58;;
39882;SDS011;55824;52.220;21.040;2023-03-13T05:18:31;5.57;;;4.00;;
39882;SDS011;55824;52.220;21.040;2023-03-13T05:20:57;6.85;;;4.28;;
39882;SDS011;55824;52.220;21.040;2023-03-13T05:23:23;6.72;;;4.45;;
39882;SDS011;55824;52.220;21.040;2023-03-13T05:25:49;6.35;;;4.00;;
39882;SDS011;55824;52.220;21.040;2023-03-13T05:28:15;6.38;;;4.18;;
39882;SDS011;55824;52.220;21.040;2023-03-13T05:30:41;6.47;;;3.47;;
39882;SDS011;55824;52.220;21.040;2023-03-13T05:33:07;6.18;;;3.50;;
39882;SDS011;55824;52.220;21.040;2023-03-13T05:35:33;6.85;;;4.05;;
39882;SDS011;55824;52.220;21.040;2023-03-13T05:37:59;6.43;;;4.10;;
39882;SDS011;55824;52.220;21.040;2023-03-13T05:40:25;4.88;;;3.25;;
39882;SDS011;55824;52.220;21.040;2023-03-13T05:42:51;6.28;;;3.95;;
39882;SDS011;55824;52.220;21.040;2023-03-13T05:45:17;6.53;;;4.03;;
39882;SDS011;55824;52.220;21.040;2023-03-13T05:47:43;6.57;;;4.00;;
39882;SDS011;55824;52.220;21.040;2023-03-13T05:50:09;6.65;;;4.20;;
39882;SDS011;55824;52.220;21.040;2023-03-13T05:52:35;5.35;;;3.50;;
39882;SDS011;55824;52.220;21.040;2023-03-13T05:55:01;6.47;;;3.92;;
39882;SDS011;55824;52.220;21.040;2023-03-13T05:57:27;6.38;;;4.00;;
39882;SDS011;55824;52.220;21.040;2023-03-13T05:59:53;6.60;;;4.22;;
39882;SDS011;55824;52.220;21.040;2023-03-13T06:02:19;6.00;;;3.90;;
39882;SDS011;55824;52.220;21.040;2023-03-13T06:04:45;6.65;;;4.22;;
39882;SDS011;55824;52.220;21.040;2023-03-13T06:07:11;6.35;;;3.83;;
39882;SDS011;55824;52.220;21.040;2023-03-13T06:09:37;6.20;;;3.50;;
39882;SDS011;55824;52.220;21.040;2023-03-13T06:12:05;6.75;;;3.92;;
39882;SDS011;55824;52.220;21.040;2023-03-13T06:14:31;5.80;;;3.95;;
39882;SDS011;55824;52.220;21.040;2023-03-13T06:16:57;5.97;;;3.72;;
39882;SDS011;55824;52.220;21.040;2023-03-13T06:19:23;5.30;;;3.47;;
39882;SDS011;55824;52.220;21.040;2023-03-13T06:21:49;6.53;;;3.75;;
39882;SDS011;55824;52.220;21.040;2023-03-13T06:24:15;4.65;;;3.60;;
39882;SDS011;55824;52.220;21.040;2023-03-13T06:26:41;6.00;;;3.55;;
39882;SDS011;55824;52.220;21.040;2023-03-13T06:29:07;6.82;;;3.90;;
39882;SDS011;55824;52.220;21.040;2023-03-13T06:31:33;6.10;;;3.95;;
39882;SDS011;55824;52.220;21.040;2023-03-13T06:33:59;6.00;;;4.18;;
39882;SDS011;55824;52.220;21.040;2023-03-13T06:36:25;5.65;;;3.47;;
39882;SDS011;55824;52.220;21.040;2023-03-13T06:38:51;5.30;;;3.42;;
39882;SDS011;55824;52.220;21.040;2023-03-13T06:41:17;6.72;;;3.85;;
39882;SDS011;55824;52.220;21.040;2023-03-13T06:43:43;6.43;;;3.65;;
39882;SDS011;55824;52.220;21.040;2023-03-13T06:46:16;5.93;;;3.50;;
39882;SDS011;55824;52.220;21.040;2023-03-13T06:48:43;5.55;;;3.55;;
39882;SDS011;55824;52.220;21.040;2023-03-13T06:51:13;5.82;;;3.97;;
39882;SDS011;55824;52.220;21.040;2023-03-13T06:53:40;5.40;;;3.45;;
39882;SDS011;55824;52.220;21.040;2023-03-13T06:56:06;5.68;;;3.67;;
39882;SDS011;55824;52.220;21.040;2023-03-13T06:58:33;6.38;;;3.45;;
39882;SDS011;55824;52.220;21.040;2023-03-13T07:01:04;5.05;;;3.03;;
39882;SDS011;55824;52.220;21.040;2023-03-13T07:03:30;6.28;;;3.72;;
39882;SDS011;55824;52.220;21.040;2023-03-13T07:05:57;5.28;;;3.45;;
39882;SDS011;55824;52.220;21.040;2023-03-13T07:08:23;4.90;;;3.10;;
39882;SDS011;55824;52.220;21.040;2023-03-13T07:10:49;4.82;;;3.42;;
39882;SDS011;55824;52.220;21.040;2023-03-13T07:13:17;6.40;;;3.47;;
39882;SDS011;55824;52.220;21.040;2023-03-13T07:15:44;5.32;;;3.15;;
39882;SDS011;55824;52.220;21.040;2023-03-13T07:18:10;4.70;;;3.33;;
39882;SDS011;55824;52.220;21.040;2023-03-13T07:20:36;4.68;;;3.05;;
39882;SDS011;55824;52.220;21.040;2023-03-13T07:23:02;5.15;;;3.28;;
39882;SDS011;55824;52.220;21.040;2023-03-13T07:25:28;4.43;;;3.08;;
39882;SDS011;55824;52.220;21.040;2023-03-13T07:27:54;6.60;;;3.72;;
39882;SDS011;55824;52.220;21.040;2023-03-13T07:30:20;4.93;;;3.38;;
39882;SDS011;55824;52.220;21.040;2023-03-13T07:32:47;5.75;;;3.47;;
39882;SDS011;55824;52.220;21.040;2023-03-13T07:35:13;5.22;;;3.40;;
39882;SDS011;55824;52.220;21.040;2023-03-13T07:37:39;4.57;;;3.17;;
39882;SDS011;55824;52.220;21.040;2023-03-13T07:40:05;5.20;;;3.42;;
39882;SDS011;55824;52.220;21.040;2023-03-13T07:42:33;5.18;;;3.58;;
39882;SDS011;55824;52.220;21.040;2023-03-13T07:44:59;8.30;;;3.42;;
39882;SDS011;55824;52.220;21.040;2023-03-13T07:47:25;6.20;;;3.22;;
39882;SDS011;55824;52.220;21.040;2023-03-13T07:49:51;6.13;;;3.45;;
39882;SDS011;55824;52.220;21.040;2023-03-13T07:52:17;5.82;;;3.45;;
39882;SDS011;55824;52.220;21.040;2023-03-13T07:54:43;6.47;;;3.80;;
39882;SDS011;55824;52.220;21.040;2023-03-13T07:57:09;5.20;;;3.20;;
39882;SDS011;55824;52.220;21.040;2023-03-13T07:59:35;5.30;;;3.22;;
39882;SDS011;55824;52.220;21.040;2023-03-13T08:02:01;5.68;;;3.70;;
39882;SDS011;55824;52.220;21.040;2023-03-13T08:04:27;5.63;;;3.63;;
39882;SDS011;55824;52.220;21.040;2023-03-13T08:06:53;4.47;;;2.90;;
39882;SDS011;55824;52.220;21.040;2023-03-13T08:09:20;5.22;;;3.15;;
39882;SDS011;55824;52.220;21.040;2023-03-13T08:11:46;6.90;;;3.47;;
39882;SDS011;55824;52.220;21.040;2023-03-13T08:14:13;5.13;;;3.13;;
39882;SDS011;55824;52.220;21.040;2023-03-13T08:16:39;6.57;;;3.55;;
39882;SDS011;55824;52.220;21.040;2023-03-13T08:19:05;6.40;;;3.50;;
39882;SDS011;55824;52.220;21.040;2023-03-13T08:21:32;5.13;;;3.15;;
39882;SDS011;55824;52.220;21.040;2023-03-13T08:23:59;4.45;;;3.10;;
39882;SDS011;55824;52.220;21.040;2023-03-13T08:26:26;6.03;;;3.70;;
39882;SDS011;55824;52.220;21.040;2023-03-13T08:28:53;5.90;;;3.20;;
39882;SDS011;55824;52.220;21.040;2023-03-13T08:31:24;4.55;;;3.10;;
39882;SDS011;55824;52.220;21.040;2023-03-13T08:33:50;5.35;;;3.20;;
39882;SDS011;55824;52.220;21.040;2023-03-13T08:38:42;6.20;;;3.17;;
39882;SDS011;55824;52.220;21.040;2023-03-13T08:41:16;5.40;;;3.15;;
39882;SDS011;55824;52.220;21.040;2023-03-13T08:43:43;5.20;;;3.22;;
39882;SDS011;55824;52.220;21.040;2023-03-13T08:46:09;5.63;;;3.20;;
39882;SDS011;55824;52.220;21.040;2023-03-13T08:48:35;6.55;;;3.53;;
39882;SDS011;55824;52.220;21.040;2023-03-13T08:51:02;5.82;;;3.08;;
39882;SDS011;55824;52.220;21.040;2023-03-13T08:53:28;4.65;;;3.25;;
39882;SDS011;55824;52.220;21.040;2023-03-13T08:55:54;4.53;;;3.05;;
39882;SDS011;55824;52.220;21.040;2023-03-13T08:58:20;6.13;;;3.78;;
39882;SDS011;55824;52.220;21.040;2023-03-13T09:00:46;6.22;;;3.22;;
39882;SDS011;55824;52.220;21.040;2023-03-13T09:03:12;5.55;;;3.15;;
39882;SDS011;55824;52.220;21.040;2023-03-13T09:05:38;4.45;;;3.08;;
39882;SDS011;55824;52.220;21.040;2023-03-13T09:08:04;6.88;;;3.38;;
39882;SDS011;55824;52.220;21.040;2023-03-13T09:10:33;4.68;;;3.25;;
39882;SDS011;55824;52.220;21.040;2023-03-13T09:13:00;5.72;;;3.15;;
39882;SDS011;55824;52.220;21.040;2023-03-13T09:15:26;5.05;;;3.10;;
39882;SDS011;55824;52.220;21.040;2023-03-13T09:17:52;4.85;;;3.30;;
39882;SDS011;55824;52.220;21.040;2023-03-13T09:20:18;6.40;;;3.25;;
39882;SDS011;55824;52.220;21.040;2023-03-13T09:22:44;4.18;;;2.90;;
39882;SDS011;55824;52.220;21.040;2023-03-13T09:25:11;5.47;;;3.28;;
39882;SDS011;55824;52.220;21.040;2023-03-13T09:27:37;5.72;;;3.10;;
39882;SDS011;55824;52.220;21.040;2023-03-13T09:30:03;4.85;;;3.22;;
39882;SDS011;55824;52.220;21.040;2023-03-13T09:32:29;6.47;;;3.55;;
39882;SDS011;55824;52.220;21.040;2023-03-13T09:34:55;4.72;;;3.00;;
39882;SDS011;55824;52.220;21.040;2023-03-13T09:37:21;4.65;;;2.78;;
39882;SDS011;55824;52.220;21.040;2023-03-13T09:39:47;5.70;;;3.55;;
39882;SDS011;55824;52.220;21.040;2023-03-13T09:42:17;5.45;;;3.25;;
39882;SDS011;55824;52.220;21.040;2023-03-13T09:44:47;6.55;;;3.40;;
39882;SDS011;55824;52.220;21.040;2023-03-13T09:49:53;4.53;;;2.70;;
39882;SDS011;55824;52.220;21.040;2023-03-13T09:52:23;5.80;;;3.30;;
39882;SDS011;55824;52.220;21.040;2023-03-13T09:55:35;5.07;;;2.97;;
39882;SDS011;55824;52.220;21.040;2023-03-13T09:57:39;4.15;;;2.88;;
39882;SDS011;55824;52.220;21.040;2023-03-13T10:00:16;5.22;;;2.85;;
39882;SDS011;55824;52.220;21.040;2023-03-13T10:02:51;4.93;;;3.10;;
39882;SDS011;55824;52.220;21.040;2023-03-13T10:05:24;5.28;;;3.00;;
39882;SDS011;55824;52.220;21.040;2023-03-13T10:07:54;6.50;;;3.00;;
39882;SDS011;55824;52.220;21.040;2023-03-13T10:10:28;5.07;;;2.80;;
39882;SDS011;55824;52.220;21.040;2023-03-13T10:12:59;5.05;;;3.00;;
39882;SDS011;55824;52.220;21.040;2023-03-13T10:15:36;5.28;;;3.10;;
39882;SDS011;55824;52.220;21.040;2023-03-13T10:18:11;5.32;;;3.15;;
39882;SDS011;55824;52.220;21.040;2023-03-13T10:20:38;4.82;;;2.58;;
39882;SDS011;55824;52.220;21.040;2023-03-13T10:23:06;5.72;;;2.88;;
39882;SDS011;55824;52.220;21.040;2023-03-13T10:25:33;4.45;;;2.70;;
39882;SDS011;55824;52.220;21.040;2023-03-13T10:28:00;4.63;;;2.95;;
39882;SDS011;55824;52.220;21.040;2023-03-13T10:30:27;4.88;;;2.78;;
39882;SDS011;55824;52.220;21.040;2023-03-13T10:33:39;6.22;;;3.33;;
39882;SDS011;55824;52.220;21.040;2023-03-13T10:35:40;4.85;;;2.65;;
39882;SDS011;55824;52.220;21.040;2023-03-13T10:40:35;3.53;;;2.20;;
39882;SDS011;55824;52.220;21.040;2023-03-13T10:43:03;5.57;;;2.92;;
39882;SDS011;55824;52.220;21.040;2023-03-13T10:45:31;4.68;;;2.40;;
39882;SDS011;55824;52.220;21.040;2023-03-13T10:48:01;5.22;;;2.53;;
39882;SDS011;55824;52.220;21.040;2023-03-13T10:50:31;5.13;;;2.47;;
39882;SDS011;55824;52.220;21.040;2023-03-13T10:55:23;5.15;;;2.95;;
39882;SDS011;55824;52.220;21.040;2023-03-13T10:57:54;6.05;;;2.45;;
39882;SDS011;55824;52.220;21.040;2023-03-13T11:03:00;5.75;;;2.55;;
39882;SDS011;55824;52.220;21.040;2023-03-13T11:05:29;7.07;;;3.40;;
39882;SDS011;55824;52.220;21.040;2023-03-13T11:07:55;4.07;;;2.47;;
39882;SDS011;55824;52.220;21.040;2023-03-13T11:10:22;6.55;;;2.90;;
39882;SDS011;55824;52.220;21.040;2023-03-13T11:12:52;5.68;;;2.78;;
39882;SDS011;55824;52.220;21.040;2023-03-13T11:15:19;7.90;;;2.40;;
39882;SDS011;55824;52.220;21.040;2023-03-13T11:20:40;5.00;;;2.83;;
39882;SDS011;55824;52.220;21.040;2023-03-13T11:23:54;4.75;;;2.55;;
39882;SDS011;55824;52.220;21.040;2023-03-13T11:31:17;4.25;;;2.17;;
39882;SDS011;55824;52.220;21.040;2023-03-13T11:38:58;3.97;;;2.10;;
39882;SDS011;55824;52.220;21.040;2023-03-13T11:46:58;5.43;;;2.60;;
39882;SDS011;55824;52.220;21.040;2023-03-13T11:49:38;6.32;;;2.90;;
39882;SDS011;55824;52.220;21.040;2023-03-13T11:57:28;7.03;;;2.63;;
39882;SDS011;55824;52.220;21.040;2023-03-13T12:00:06;6.43;;;2.80;;
39882;SDS011;55824;52.220;21.040;2023-03-13T12:03:00;4.78;;;2.55;;
39882;SDS011;55824;52.220;21.040;2023-03-13T12:05:29;6.18;;;3.03;;
39882;SDS011;55824;52.220;21.040;2023-03-13T12:08:11;5.25;;;2.65;;
39882;SDS011;55824;52.220;21.040;2023-03-13T12:10:46;5.40;;;2.80;;
39882;SDS011;55824;52.220;21.040;2023-03-13T12:13:16;5.32;;;2.60;;
39882;SDS011;55824;52.220;21.040;2023-03-13T12:15:48;7.70;;;2.70;;
39882;SDS011;55824;52.220;21.040;2023-03-13T12:18:19;6.47;;;3.05;;
39882;SDS011;55824;52.220;21.040;2023-03-13T12:25:48;7.25;;;2.72;;
39882;SDS011;55824;52.220;21.040;2023-03-13T12:31:21;4.25;;;2.53;;
39882;SDS011;55824;52.220;21.040;2023-03-13T12:36:13;5.40;;;2.63;;
39882;SDS011;55824;52.220;21.040;2023-03-13T12:41:17;7.25;;;2.90;;
39882;SDS011;55824;52.220;21.040;2023-03-13T12:43:44;4.78;;;2.30;;
39882;SDS011;55824;52.220;21.040;2023-03-13T12:46:26;5.47;;;2.92;;
39882;SDS011;55824;52.220;21.040;2023-03-13T12:59:25;5.30;;;2.55;;
39882;SDS011;55824;52.220;21.040;2023-03-13T13:01:53;5.00;;;2.50;;
39882;SDS011;55824;52.220;21.040;2023-03-13T13:04:20;5.57;;;2.80;;
39882;SDS011;55824;52.220;21.040;2023-03-13T13:06:53;5.18;;;2.63;;
39882;SDS011;55824;52.220;21.040;2023-03-13T13:09:24;6.28;;;2.65;;
39882;SDS011;55824;52.220;21.040;2023-03-13T13:11:51;5.18;;;2.80;;
39882;SDS011;55824;52.220;21.040;2023-03-13T13:16:49;4.93;;;2.35;;
39882;SDS011;55824;52.220;21.040;2023-03-13T13:27:08;7.90;;;2.60;;
39882;SDS011;55824;52.220;21.040;2023-03-13T13:29:52;5.85;;;2.78;;
39882;SDS011;55824;52.220;21.040;2023-03-13T13:32:18;6.47;;;3.00;;
39882;SDS011;55824;52.220;21.040;2023-03-13T13:37:30;5.78;;;2.80;;
39882;SDS011;55824;52.220;21.040;2023-03-13T13:47:41;6.25;;;2.88;;
39882;SDS011;55824;52.220;21.040;2023-03-13T13:50:18;6.05;;;2.70;;
39882;SDS011;55824;52.220;21.040;2023-03-13T13:52:45;4.88;;;2.67;;
39882;SDS011;55824;52.220;21.040;2023-03-13T14:00:44;4.95;;;2.35;;
39882;SDS011;55824;52.220;21.040;2023-03-13T14:05:37;6.18;;;2.45;;
39882;SDS011;55824;52.220;21.040;2023-03-13T14:13:35;5.38;;;2.65;;
39882;SDS011;55824;52.220;21.040;2023-03-13T14:16:13;5.72;;;2.92;;
39882;SDS011;55824;52.220;21.040;2023-03-13T14:18:43;6.10;;;2.35;;
39882;SDS011;55824;52.220;21.040;2023-03-13T14:21:09;5.80;;;2.55;;
39882;SDS011;55824;52.220;21.040;2023-03-13T14:23:40;4.50;;;2.45;;
39882;SDS011;55824;52.220;21.040;2023-03-13T14:26:13;5.10;;;2.42;;
39882;SDS011;55824;52.220;21.040;2023-03-13T14:28:42;6.25;;;2.50;;
39882;SDS011;55824;52.220;21.040;2023-03-13T14:31:08;5.82;;;2.65;;
39882;SDS011;55824;52.220;21.040;2023-03-13T14:33:36;7.93;;;2.85;;
39882;SDS011;55824;52.220;21.040;2023-03-13T14:36:02;6.55;;;2.60;;
39882;SDS011;55824;52.220;21.040;2023-03-13T14:38:28;5.80;;;2.75;;
39882;SDS011;55824;52.220;21.040;2023-03-13T14:40:54;4.70;;;2.47;;
39882;SDS011;55824;52.220;21.040;2023-03-13T14:43:34;5.47;;;2.85;;
39882;SDS011;55824;52.220;21.040;2023-03-13T14:46:11;5.05;;;2.58;;
39882;SDS011;55824;52.220;21.040;2023-03-13T14:48:38;5.60;;;2.85;;
39882;SDS011;55824;52.220;21.040;2023-03-13T14:53:33;5.40;;;3.13;;
39882;SDS011;55824;52.220;21.040;2023-03-13T14:56:10;4.25;;;2.33;;
39882;SDS011;55824;52.220;21.040;2023-03-13T14:58:36;5.97;;;2.95;;
39882;SDS011;55824;52.220;21.040;2023-03-13T15:03:47;4.22;;;2.80;;
39882;SDS011;55824;52.220;21.040;2023-03-13T15:06:14;4.72;;;2.38;;
39882;SDS011;55824;52.220;21.040;2023-03-13T15:08:41;3.78;;;2.33;;
39882;SDS011;55824;52.220;21.040;2023-03-13T15:13:43;5.35;;;2.80;;
39882;SDS011;55824;52.220;21.040;2023-03-13T15:16:17;5.97;;;2.92;;
39882;SDS011;55824;52.220;21.040;2023-03-13T15:18:47;6.40;;;2.90;;
39882;SDS011;55824;52.220;21.040;2023-03-13T15:23:47;4.65;;;2.50;;
39882;SDS011;55824;52.220;21.040;2023-03-13T15:26:14;6.70;;;2.90;;
39882;SDS011;55824;52.220;21.040;2023-03-13T15:28:39;5.68;;;2.95;;
39882;SDS011;55824;52.220;21.040;2023-03-13T15:31:05;5.57;;;2.65;;
39882;SDS011;55824;52.220;21.040;2023-03-13T15:33:31;5.78;;;2.80;;
39882;SDS011;55824;52.220;21.040;2023-03-13T15:35:59;6.63;;;2.80;;
39882;SDS011;55824;52.220;21.040;2023-03-13T15:38:25;6.00;;;2.58;;
39882;SDS011;55824;52.220;21.040;2023-03-13T15:40:52;4.40;;;2.63;;
39882;SDS011;55824;52.220;21.040;2023-03-13T15:43:18;5.05;;;2.30;;
39882;SDS011;55824;52.220;21.040;2023-03-13T15:45:45;6.70;;;2.75;;
39882;SDS011;55824;52.220;21.040;2023-03-13T15:48:18;5.60;;;2.78;;
39882;SDS011;55824;52.220;21.040;2023-03-13T15:50:45;6.38;;;2.70;;
39882;SDS011;55824;52.220;21.040;2023-03-13T15:53:17;6.47;;;2.95;;
39882;SDS011;55824;52.220;21.040;2023-03-13T15:55:44;5.32;;;2.42;;
39882;SDS011;55824;52.220;21.040;2023-03-13T15:58:11;6.20;;;2.58;;
39882;SDS011;55824;52.220;21.040;2023-03-13T16:00:37;6.45;;;2.83;;
39882;SDS011;55824;52.220;21.040;2023-03-13T16:03:03;5.00;;;2.47;;
39882;SDS011;55824;52.220;21.040;2023-03-13T16:05:29;4.93;;;2.50;;
39882;SDS011;55824;52.220;21.040;2023-03-13T16:07:55;5.25;;;2.25;;
39882;SDS011;55824;52.220;21.040;2023-03-13T16:10:25;4.88;;;2.35;;
39882;SDS011;55824;52.220;21.040;2023-03-13T16:12:52;4.18;;;2.80;;
39882;SDS011;55824;52.220;21.040;2023-03-13T16:15:18;4.57;;;2.33;;
39882;SDS011;55824;52.220;21.040;2023-03-13T16:17:44;5.22;;;2.60;;
39882;SDS011;55824;52.220;21.040;2023-03-13T16:20:11;6.30;;;2.38;;
39882;SDS011;55824;52.220;21.040;2023-03-13T16:22:40;4.90;;;2.15;;
39882;SDS011;55824;52.220;21.040;2023-03-13T16:25:06;4.07;;;2.40;;
39882;SDS011;55824;52.220;21.040;2023-03-13T16:27:33;4.47;;;2.47;;
39882;SDS011;55824;52.220;21.040;2023-03-13T16:29:59;6.70;;;2.83;;